sensor_id;sensor_type;location;lat;lon;timestamp;pressure;altitude;pressure_sealevel;temperature;humidity
41706;BME280;27385;51.096;17.190;2022-08-19T00:01:43;99584.30;;;24.38;60.02
41706;BME280;27385;51.096;17.190;2022-08-19T00:04:17;99583.00;;;24.36;60.21
41706;BME280;27385;51.096;17.190;2022-08-19T00:06:50;99582.15;;;24.34;60.31
41706;BME280;27385;51.096;17.190;2022-08-19T00:09:23;99584.20;;;24.31;60.22
41706;BME280;27385;51.096;17.190;2022-08-19T00:11:56;99583.39;;;24.30;60.39
41706;BME280;27385;51.096;17.190;2022-08-19T00:14:29;99578.58;;;24.29;60.27
41706;BME280;27385;51.096;17.190;2022-08-19T00:17:02;99567.27;;;24.27;60.56
41706;BME280;27385;51.096;17.190;2022-08-19T00:19:35;99558.91;;;24.23;60.44
41706;BME280;27385;51.096;17.190;2022-08-19T00:22:07;99558.98;;;24.21;60.63
41706;BME280;27385;51.096;17.190;2022-08-19T00:24:39;99549.70;;;24.19;60.60
41706;BME280;27385;51.096;17.190;2022-08-19T00:27:13;99548.08;;;24.15;60.61
41706;BME280;27385;51.096;17.190;2022-08-19T00:29:46;99540.97;;;24.12;60.84
41706;BME280;27385;51.096;17.190;2022-08-19T00:32:18;99540.52;;;24.08;60.83
41706;BME280;27385;51.096;17.190;2022-08-19T00:34:50;99537.48;;;24.04;60.85
41706;BME280;27385;51.096;17.190;2022-08-19T00:37:23;99531.23;;;24.01;61.02
41706;BME280;27385;51.096;17.190;2022-08-19T00:39:57;99529.21;;;23.97;61.14
41706;BME280;27385;51.096;17.190;2022-08-19T00:42:29;99531.30;;;23.95;61.21
41706;BME280;27385;51.096;17.190;2022-08-19T00:45:01;99530.04;;;23.93;61.16
41706;BME280;27385;51.096;17.190;2022-08-19T00:47:33;99530.13;;;23.91;61.21
41706;BME280;27385;51.096;17.190;2022-08-19T00:50:06;99531.27;;;23.88;61.17
41706;BME280;27385;51.096;17.190;2022-08-19T00:52:41;99529.73;;;23.84;61.20
41706;BME280;27385;51.096;17.190;2022-08-19T00:55:18;99526.38;;;23.82;61.41
41706;BME280;27385;51.096;17.190;2022-08-19T00:57:54;99528.44;;;23.77;61.46
41706;BME280;27385;51.096;17.190;2022-08-19T01:00:30;99530.20;;;23.74;61.65
41706;BME280;27385;51.096;17.190;2022-08-19T01:03:02;99538.54;;;23.72;61.63
41706;BME280;27385;51.096;17.190;2022-08-19T01:05:34;99547.77;;;23.68;61.73
41706;BME280;27385;51.096;17.190;2022-08-19T01:08:08;99551.70;;;23.64;62.03
41706;BME280;27385;51.096;17.190;2022-08-19T01:10:43;99543.21;;;23.61;62.19
41706;BME280;27385;51.096;17.190;2022-08-19T01:13:17;99528.98;;;23.60;62.25
41706;BME280;27385;51.096;17.190;2022-08-19T01:15:58;99532.99;;;23.58;62.23
41706;BME280;27385;51.096;17.190;2022-08-19T01:18:32;99536.44;;;23.57;62.28
41706;BME280;27385;51.096;17.190;2022-08-19T01:21:15;99535.19;;;23.56;62.69
41706;BME280;27385;51.096;17.190;2022-08-19T01:23:50;99518.98;;;23.54;62.88
41706;BME280;27385;51.096;17.190;2022-08-19T01:26:24;99509.11;;;23.54;62.63
41706;BME280;27385;51.096;17.190;2022-08-19T01:28:58;99493.66;;;23.50;62.79
41706;BME280;27385;51.096;17.190;2022-08-19T01:31:30;99479.55;;;23.45;62.90
41706;BME280;27385;51.096;17.190;2022-08-19T01:34:03;99476.08;;;23.39;63.17
41706;BME280;27385;51.096;17.190;2022-08-19T01:36:36;99478.00;;;23.33;63.17
41706;BME280;27385;51.096;17.190;2022-08-19T01:39:10;99487.95;;;23.27;63.36
41706;BME280;27385;51.096;17.190;2022-08-19T01:41:43;99487.20;;;23.25;63.65
41706;BME280;27385;51.096;17.190;2022-08-19T01:44:14;99480.51;;;23.23;63.72
41706;BME280;27385;51.096;17.190;2022-08-19T01:46:47;99477.92;;;23.21;63.85
41706;BME280;27385;51.096;17.190;2022-08-19T01:49:21;99480.37;;;23.20;63.85
41706;BME280;27385;51.096;17.190;2022-08-19T01:51:53;99481.17;;;23.19;64.07
41706;BME280;27385;51.096;17.190;2022-08-19T01:54:25;99473.17;;;23.17;64.22
41706;BME280;27385;51.096;17.190;2022-08-19T01:57:01;99470.40;;;23.13;64.17
41706;BME280;27385;51.096;17.190;2022-08-19T01:59:35;99473.83;;;23.08;64.41
41706;BME280;27385;51.096;17.190;2022-08-19T02:02:07;99471.34;;;23.03;64.54
41706;BME280;27385;51.096;17.190;2022-08-19T02:04:40;99469.16;;;22.97;64.61
41706;BME280;27385;51.096;17.190;2022-08-19T02:07:12;99470.33;;;22.91;64.80
41706;BME280;27385;51.096;17.190;2022-08-19T02:09:44;99469.90;;;22.84;64.93
41706;BME280;27385;51.096;17.190;2022-08-19T02:12:16;99475.63;;;22.79;65.04
41706;BME280;27385;51.096;17.190;2022-08-19T02:14:47;99476.40;;;22.74;65.13
41706;BME280;27385;51.096;17.190;2022-08-19T02:17:18;99477.42;;;22.69;65.39
41706;BME280;27385;51.096;17.190;2022-08-19T02:19:50;99476.17;;;22.64;65.48
41706;BME280;27385;51.096;17.190;2022-08-19T02:22:22;99467.10;;;22.60;65.43
41706;BME280;27385;51.096;17.190;2022-08-19T02:24:56;99457.77;;;22.57;65.58
41706;BME280;27385;51.096;17.190;2022-08-19T02:27:27;99452.31;;;22.55;65.65
41706;BME280;27385;51.096;17.190;2022-08-19T02:29:59;99455.61;;;22.52;65.74
41706;BME280;27385;51.096;17.190;2022-08-19T02:32:31;99456.52;;;22.47;65.83
41706;BME280;27385;51.096;17.190;2022-08-19T02:35:03;99457.17;;;22.42;65.90
41706;BME280;27385;51.096;17.190;2022-08-19T02:37:35;99453.58;;;22.35;66.20
41706;BME280;27385;51.096;17.190;2022-08-19T02:40:24;99453.16;;;22.30;66.23
41706;BME280;27385;51.096;17.190;2022-08-19T02:42:57;99444.69;;;22.26;66.34
41706;BME280;27385;51.096;17.190;2022-08-19T02:45:33;99439.49;;;22.22;66.46
41706;BME280;27385;51.096;17.190;2022-08-19T02:48:05;99441.08;;;22.17;66.63
41706;BME280;27385;51.096;17.190;2022-08-19T02:50:40;99445.36;;;22.13;66.76
41706;BME280;27385;51.096;17.190;2022-08-19T02:53:12;99450.51;;;22.06;66.87
41706;BME280;27385;51.096;17.190;2022-08-19T02:55:48;99448.64;;;22.03;66.93
41706;BME280;27385;51.096;17.190;2022-08-19T02:58:20;99445.70;;;21.99;66.99
41706;BME280;27385;51.096;17.190;2022-08-19T03:00:54;99447.70;;;21.94;67.19
41706;BME280;27385;51.096;17.190;2022-08-19T03:03:27;99446.17;;;21.88;67.25
41706;BME280;27385;51.096;17.190;2022-08-19T03:06:08;99441.22;;;21.83;67.49
41706;BME280;27385;51.096;17.190;2022-08-19T03:08:43;99437.71;;;21.81;67.48
41706;BME280;27385;51.096;17.190;2022-08-19T03:11:17;99440.75;;;21.79;67.67
41706;BME280;27385;51.096;17.190;2022-08-19T03:13:50;99437.14;;;21.74;67.79
41706;BME280;27385;51.096;17.190;2022-08-19T03:16:26;99444.27;;;21.70;67.91
41706;BME280;27385;51.096;17.190;2022-08-19T03:18:58;99456.20;;;21.67;67.97
41706;BME280;27385;51.096;17.190;2022-08-19T03:21:32;99471.17;;;21.63;68.26
41706;BME280;27385;51.096;17.190;2022-08-19T03:24:06;99483.20;;;21.56;68.39
41706;BME280;27385;51.096;17.190;2022-08-19T03:26:43;99487.65;;;21.50;68.61
41706;BME280;27385;51.096;17.190;2022-08-19T03:29:15;99489.64;;;21.46;68.74
41706;BME280;27385;51.096;17.190;2022-08-19T03:31:47;99487.11;;;21.41;68.69
41706;BME280;27385;51.096;17.190;2022-08-19T03:34:23;99484.55;;;21.38;68.87
41706;BME280;27385;51.096;17.190;2022-08-19T03:36:57;99483.07;;;21.36;68.96
41706;BME280;27385;51.096;17.190;2022-08-19T03:39:30;99482.81;;;21.35;69.11
41706;BME280;27385;51.096;17.190;2022-08-19T03:42:01;99480.09;;;21.31;69.17
41706;BME280;27385;51.096;17.190;2022-08-19T03:44:33;99479.65;;;21.26;69.33
41706;BME280;27385;51.096;17.190;2022-08-19T03:47:07;99478.98;;;21.24;69.57
41706;BME280;27385;51.096;17.190;2022-08-19T03:49:39;99481.37;;;21.20;69.65
41706;BME280;27385;51.096;17.190;2022-08-19T03:52:11;99479.91;;;21.15;69.78
41706;BME280;27385;51.096;17.190;2022-08-19T03:54:42;99480.63;;;21.11;70.05
41706;BME280;27385;51.096;17.190;2022-08-19T03:57:14;99481.41;;;21.05;70.15
41706;BME280;27385;51.096;17.190;2022-08-19T03:59:46;99487.94;;;21.01;70.20
41706;BME280;27385;51.096;17.190;2022-08-19T04:02:17;99488.73;;;20.97;70.39
41706;BME280;27385;51.096;17.190;2022-08-19T04:04:52;99492.44;;;20.93;70.73
41706;BME280;27385;51.096;17.190;2022-08-19T04:07:24;99497.09;;;20.88;70.71
41706;BME280;27385;51.096;17.190;2022-08-19T04:09:55;99502.17;;;20.85;70.92
41706;BME280;27385;51.096;17.190;2022-08-19T04:12:29;99508.64;;;20.83;71.09
41706;BME280;27385;51.096;17.190;2022-08-19T04:15:00;99505.30;;;20.82;71.03
41706;BME280;27385;51.096;17.190;2022-08-19T04:17:32;99499.67;;;20.82;71.15
41706;BME280;27385;51.096;17.190;2022-08-19T04:20:05;99502.35;;;20.84;71.28
41706;BME280;27385;51.096;17.190;2022-08-19T04:22:37;99506.10;;;20.84;71.52
41706;BME280;27385;51.096;17.190;2022-08-19T04:25:10;99512.60;;;20.86;71.77
41706;BME280;27385;51.096;17.190;2022-08-19T04:27:41;99514.60;;;20.87;71.87
41706;BME280;27385;51.096;17.190;2022-08-19T04:30:16;99515.27;;;20.90;72.16
41706;BME280;27385;51.096;17.190;2022-08-19T04:32:49;99514.64;;;20.92;72.34
41706;BME280;27385;51.096;17.190;2022-08-19T04:35:20;99513.20;;;20.95;72.37
41706;BME280;27385;51.096;17.190;2022-08-19T04:37:52;99514.60;;;20.99;72.47
41706;BME280;27385;51.096;17.190;2022-08-19T04:40:24;99513.29;;;21.04;72.68
41706;BME280;27385;51.096;17.190;2022-08-19T04:43:13;99509.32;;;21.10;72.80
41706;BME280;27385;51.096;17.190;2022-08-19T04:45:44;99508.52;;;21.15;72.93
41706;BME280;27385;51.096;17.190;2022-08-19T04:48:16;99511.70;;;21.20;73.16
41706;BME280;27385;51.096;17.190;2022-08-19T04:50:57;99508.65;;;21.25;73.17
41706;BME280;27385;51.096;17.190;2022-08-19T04:53:31;99508.79;;;21.32;73.39
41706;BME280;27385;51.096;17.190;2022-08-19T04:56:06;99511.27;;;21.38;73.42
41706;BME280;27385;51.096;17.190;2022-08-19T04:58:40;99512.05;;;21.45;73.60
41706;BME280;27385;51.096;17.190;2022-08-19T05:01:19;99503.89;;;21.51;73.65
41706;BME280;27385;51.096;17.190;2022-08-19T05:03:52;99500.44;;;21.56;73.69
41706;BME280;27385;51.096;17.190;2022-08-19T05:06:24;99493.25;;;21.62;73.69
41706;BME280;27385;51.096;17.190;2022-08-19T05:08:56;99483.07;;;21.67;73.74
41706;BME280;27385;51.096;17.190;2022-08-19T05:11:29;99479.76;;;21.73;74.07
41706;BME280;27385;51.096;17.190;2022-08-19T05:14:01;99486.06;;;21.79;73.88
41706;BME280;27385;51.096;17.190;2022-08-19T05:16:33;99494.02;;;21.83;74.08
41706;BME280;27385;51.096;17.190;2022-08-19T05:19:04;99495.04;;;21.87;74.07
41706;BME280;27385;51.096;17.190;2022-08-19T05:21:55;99488.76;;;21.92;74.10
41706;BME280;27385;51.096;17.190;2022-08-19T05:24:44;99491.76;;;21.97;74.29
41706;BME280;27385;51.096;17.190;2022-08-19T05:27:15;99492.76;;;22.02;74.38
41706;BME280;27385;51.096;17.190;2022-08-19T05:29:47;99494.56;;;22.08;74.37
41706;BME280;27385;51.096;17.190;2022-08-19T05:32:18;99489.33;;;22.13;74.29
41706;BME280;27385;51.096;17.190;2022-08-19T05:34:52;99488.02;;;22.19;74.22
41706;BME280;27385;51.096;17.190;2022-08-19T05:37:23;99488.83;;;22.25;74.14
41706;BME280;27385;51.096;17.190;2022-08-19T05:39:57;99492.43;;;22.32;74.27
41706;BME280;27385;51.096;17.190;2022-08-19T05:42:28;99495.95;;;22.38;74.14
41706;BME280;27385;51.096;17.190;2022-08-19T05:45:00;99507.21;;;22.43;74.10
41706;BME280;27385;51.096;17.190;2022-08-19T05:47:31;99510.40;;;22.49;73.86
41706;BME280;27385;51.096;17.190;2022-08-19T05:50:03;99512.92;;;22.55;73.97
41706;BME280;27385;51.096;17.190;2022-08-19T05:52:35;99505.77;;;22.62;73.81
41706;BME280;27385;51.096;17.190;2022-08-19T05:55:09;99498.54;;;22.66;73.78
41706;BME280;27385;51.096;17.190;2022-08-19T05:57:42;99497.00;;;22.72;73.67
41706;BME280;27385;51.096;17.190;2022-08-19T06:00:15;99496.17;;;22.77;73.70
41706;BME280;27385;51.096;17.190;2022-08-19T06:02:47;99498.22;;;22.82;73.70
41706;BME280;27385;51.096;17.190;2022-08-19T06:05:19;99501.34;;;22.89;73.63
41706;BME280;27385;51.096;17.190;2022-08-19T06:07:51;99504.92;;;22.96;73.54
41706;BME280;27385;51.096;17.190;2022-08-19T06:10:23;99509.16;;;23.02;73.56
41706;BME280;27385;51.096;17.190;2022-08-19T06:12:55;99512.52;;;23.08;73.48
41706;BME280;27385;51.096;17.190;2022-08-19T06:15:26;99522.95;;;23.12;73.13
41706;BME280;27385;51.096;17.190;2022-08-19T06:17:58;99530.35;;;23.17;73.22
41706;BME280;27385;51.096;17.190;2022-08-19T06:20:31;99540.36;;;23.22;73.07
41706;BME280;27385;51.096;17.190;2022-08-19T06:23:02;99549.16;;;23.27;73.20
41706;BME280;27385;51.096;17.190;2022-08-19T06:25:34;99553.80;;;23.31;73.01
41706;BME280;27385;51.096;17.190;2022-08-19T06:28:06;99557.23;;;23.37;72.82
41706;BME280;27385;51.096;17.190;2022-08-19T06:30:38;99560.79;;;23.42;72.71
41706;BME280;27385;51.096;17.190;2022-08-19T06:33:11;99567.16;;;23.46;72.51
41706;BME280;27385;51.096;17.190;2022-08-19T06:35:43;99558.95;;;23.50;72.48
41706;BME280;27385;51.096;17.190;2022-08-19T06:38:15;99558.38;;;23.55;72.25
41706;BME280;27385;51.096;17.190;2022-08-19T06:40:47;99569.83;;;23.61;72.27
41706;BME280;27385;51.096;17.190;2022-08-19T06:43:19;99576.59;;;23.67;72.43
41706;BME280;27385;51.096;17.190;2022-08-19T06:45:52;99580.91;;;23.74;72.28
41706;BME280;27385;51.096;17.190;2022-08-19T06:48:24;99584.88;;;23.81;72.10
41706;BME280;27385;51.096;17.190;2022-08-19T06:50:56;99595.85;;;23.88;71.83
41706;BME280;27385;51.096;17.190;2022-08-19T06:53:28;99602.88;;;23.93;71.32
41706;BME280;27385;51.096;17.190;2022-08-19T06:56:00;99607.01;;;24.00;71.38
41706;BME280;27385;51.096;17.190;2022-08-19T06:58:33;99607.66;;;24.07;71.28
41706;BME280;27385;51.096;17.190;2022-08-19T07:01:06;99613.88;;;24.16;71.16
41706;BME280;27385;51.096;17.190;2022-08-19T07:03:39;99613.13;;;24.24;71.00
41706;BME280;27385;51.096;17.190;2022-08-19T07:06:14;99616.76;;;24.32;70.70
41706;BME280;27385;51.096;17.190;2022-08-19T07:08:48;99620.91;;;24.40;70.70
41706;BME280;27385;51.096;17.190;2022-08-19T07:11:20;99622.66;;;24.50;70.06
41706;BME280;27385;51.096;17.190;2022-08-19T07:13:53;99618.58;;;24.57;69.81
41706;BME280;27385;51.096;17.190;2022-08-19T07:16:26;99609.22;;;24.64;69.61
41706;BME280;27385;51.096;17.190;2022-08-19T07:19:01;99611.80;;;24.69;69.43
41706;BME280;27385;51.096;17.190;2022-08-19T07:21:33;99617.48;;;24.75;69.38
41706;BME280;27385;51.096;17.190;2022-08-19T07:24:09;99620.84;;;24.85;68.99
41706;BME280;27385;51.096;17.190;2022-08-19T07:26:45;99625.00;;;24.95;68.32
41706;BME280;27385;51.096;17.190;2022-08-19T07:29:19;99632.10;;;25.03;68.39
41706;BME280;27385;51.096;17.190;2022-08-19T07:31:54;99643.72;;;25.15;68.36
41706;BME280;27385;51.096;17.190;2022-08-19T07:34:27;99647.52;;;25.25;67.41
41706;BME280;27385;51.096;17.190;2022-08-19T07:36:59;99647.77;;;25.35;67.64
41706;BME280;27385;51.096;17.190;2022-08-19T07:39:35;99649.30;;;25.45;67.47
41706;BME280;27385;51.096;17.190;2022-08-19T07:42:09;99651.08;;;25.55;67.09
41706;BME280;27385;51.096;17.190;2022-08-19T07:44:43;99651.67;;;25.67;66.52
41706;BME280;27385;51.096;17.190;2022-08-19T07:47:15;99651.88;;;25.75;66.07
41706;BME280;27385;51.096;17.190;2022-08-19T07:49:47;99644.02;;;25.83;65.67
41706;BME280;27385;51.096;17.190;2022-08-19T07:52:19;99644.96;;;25.90;65.46
41706;BME280;27385;51.096;17.190;2022-08-19T07:54:52;99642.89;;;25.96;64.84
41706;BME280;27385;51.096;17.190;2022-08-19T07:57:25;99640.46;;;26.04;64.99
41706;BME280;27385;51.096;17.190;2022-08-19T07:59:56;99643.77;;;26.13;64.56
41706;BME280;27385;51.096;17.190;2022-08-19T08:02:28;99643.68;;;26.22;64.27
41706;BME280;27385;51.096;17.190;2022-08-19T08:05:01;99642.49;;;26.31;64.15
41706;BME280;27385;51.096;17.190;2022-08-19T08:07:50;99646.88;;;26.43;63.69
41706;BME280;27385;51.096;17.190;2022-08-19T08:10:38;99652.17;;;26.58;63.48
41706;BME280;27385;51.096;17.190;2022-08-19T08:13:10;99656.07;;;26.70;63.36
41706;BME280;27385;51.096;17.190;2022-08-19T08:15:42;99665.27;;;26.78;62.28
41706;BME280;27385;51.096;17.190;2022-08-19T08:18:15;99665.75;;;26.80;62.15
41706;BME280;27385;51.096;17.190;2022-08-19T08:20:47;99667.03;;;26.84;61.89
41706;BME280;27385;51.096;17.190;2022-08-19T08:23:18;99674.29;;;26.87;61.72
41706;BME280;27385;51.096;17.190;2022-08-19T08:25:56;99680.40;;;26.91;61.36
41706;BME280;27385;51.096;17.190;2022-08-19T08:28:30;99681.34;;;26.93;60.91
41706;BME280;27385;51.096;17.190;2022-08-19T08:31:05;99679.90;;;26.96;61.02
41706;BME280;27385;51.096;17.190;2022-08-19T08:33:41;99674.86;;;27.01;60.51
41706;BME280;27385;51.096;17.190;2022-08-19T08:36:15;99677.05;;;27.04;59.65
41706;BME280;27385;51.096;17.190;2022-08-19T08:38:48;99669.77;;;27.02;59.56
41706;BME280;27385;51.096;17.190;2022-08-19T08:41:25;99670.86;;;27.03;59.06
41706;BME280;27385;51.096;17.190;2022-08-19T08:44:00;99666.66;;;27.08;58.97
41706;BME280;27385;51.096;17.190;2022-08-19T08:46:38;99667.94;;;27.14;58.90
41706;BME280;27385;51.096;17.190;2022-08-19T08:49:14;99664.08;;;27.22;58.84
41706;BME280;27385;51.096;17.190;2022-08-19T08:51:51;99658.02;;;27.28;58.36
41706;BME280;27385;51.096;17.190;2022-08-19T08:54:27;99654.22;;;27.37;58.83
41706;BME280;27385;51.096;17.190;2022-08-19T08:57:06;99656.79;;;27.47;58.10
41706;BME280;27385;51.096;17.190;2022-08-19T08:59:42;99652.77;;;27.55;57.84
41706;BME280;27385;51.096;17.190;2022-08-19T09:02:14;99660.43;;;27.62;57.14
41706;BME280;27385;51.096;17.190;2022-08-19T09:04:46;99648.58;;;27.65;57.12
41706;BME280;27385;51.096;17.190;2022-08-19T09:07:38;99646.76;;;27.72;56.79
41706;BME280;27385;51.096;17.190;2022-08-19T09:10:20;99637.51;;;27.77;56.67
41706;BME280;27385;51.096;17.190;2022-08-19T09:13:03;99629.42;;;27.85;56.23
41706;BME280;27385;51.096;17.190;2022-08-19T09:15:47;99616.84;;;27.87;55.77
41706;BME280;27385;51.096;17.190;2022-08-19T09:18:19;99623.73;;;27.88;55.26
41706;BME280;27385;51.096;17.190;2022-08-19T09:20:50;99639.84;;;27.86;55.35
41706;BME280;27385;51.096;17.190;2022-08-19T09:23:22;99649.69;;;27.90;55.22
41706;BME280;27385;51.096;17.190;2022-08-19T09:25:54;99654.79;;;27.95;55.06
41706;BME280;27385;51.096;17.190;2022-08-19T09:28:27;99650.23;;;28.02;55.18
41706;BME280;27385;51.096;17.190;2022-08-19T09:31:01;99648.67;;;28.11;54.95
41706;BME280;27385;51.096;17.190;2022-08-19T09:33:35;99645.42;;;28.20;54.61
41706;BME280;27385;51.096;17.190;2022-08-19T09:36:11;99641.39;;;28.26;54.58
41706;BME280;27385;51.096;17.190;2022-08-19T09:38:43;99640.60;;;28.30;53.85
41706;BME280;27385;51.096;17.190;2022-08-19T09:41:17;99644.54;;;28.35;54.51
41706;BME280;27385;51.096;17.190;2022-08-19T09:43:51;99643.30;;;28.46;53.80
41706;BME280;27385;51.096;17.190;2022-08-19T09:46:27;99640.39;;;28.52;53.47
41706;BME280;27385;51.096;17.190;2022-08-19T09:49:01;99637.19;;;28.60;53.59
41706;BME280;27385;51.096;17.190;2022-08-19T09:51:35;99636.85;;;28.73;53.61
41706;BME280;27385;51.096;17.190;2022-08-19T09:54:07;99634.92;;;28.85;53.33
41706;BME280;27385;51.096;17.190;2022-08-19T09:56:40;99635.30;;;29.00;52.53
41706;BME280;27385;51.096;17.190;2022-08-19T09:59:12;99637.89;;;29.12;52.24
41706;BME280;27385;51.096;17.190;2022-08-19T10:01:44;99638.80;;;29.23;51.86
41706;BME280;27385;51.096;17.190;2022-08-19T10:04:16;99635.66;;;29.33;51.01
41706;BME280;27385;51.096;17.190;2022-08-19T10:06:49;99637.23;;;29.47;50.79
41706;BME280;27385;51.096;17.190;2022-08-19T10:09:22;99635.77;;;29.60;49.93
41706;BME280;27385;51.096;17.190;2022-08-19T10:11:54;99638.44;;;29.74;49.57
41706;BME280;27385;51.096;17.190;2022-08-19T10:14:26;99639.41;;;29.87;49.47
41706;BME280;27385;51.096;17.190;2022-08-19T10:16:59;99641.75;;;29.98;49.23
41706;BME280;27385;51.096;17.190;2022-08-19T10:19:34;99636.80;;;30.04;48.79
41706;BME280;27385;51.096;17.190;2022-08-19T10:22:07;99641.66;;;30.10;48.68
41706;BME280;27385;51.096;17.190;2022-08-19T10:24:45;99641.98;;;30.21;48.68
41706;BME280;27385;51.096;17.190;2022-08-19T10:27:18;99641.15;;;30.29;48.20
41706;BME280;27385;51.096;17.190;2022-08-19T10:29:51;99637.73;;;30.37;47.81
41706;BME280;27385;51.096;17.190;2022-08-19T10:32:23;99633.48;;;30.46;47.86
41706;BME280;27385;51.096;17.190;2022-08-19T10:34:58;99632.70;;;30.52;47.63
41706;BME280;27385;51.096;17.190;2022-08-19T10:37:30;99626.52;;;30.57;47.24
41706;BME280;27385;51.096;17.190;2022-08-19T10:40:04;99626.84;;;30.63;46.76
41706;BME280;27385;51.096;17.190;2022-08-19T10:42:38;99621.88;;;30.72;47.14
41706;BME280;27385;51.096;17.190;2022-08-19T10:45:11;99622.91;;;30.80;46.81
41706;BME280;27385;51.096;17.190;2022-08-19T10:47:42;99621.43;;;30.87;46.48
41706;BME280;27385;51.096;17.190;2022-08-19T10:50:17;99620.44;;;30.94;46.36
41706;BME280;27385;51.096;17.190;2022-08-19T10:53:08;99628.30;;;31.01;45.90
41706;BME280;27385;51.096;17.190;2022-08-19T10:55:44;99626.70;;;31.09;45.88
41706;BME280;27385;51.096;17.190;2022-08-19T10:58:31;99625.30;;;31.21;45.20
41706;BME280;27385;51.096;17.190;2022-08-19T11:01:05;99623.08;;;31.27;45.64
41706;BME280;27385;51.096;17.190;2022-08-19T11:03:37;99628.75;;;31.34;45.11
41706;BME280;27385;51.096;17.190;2022-08-19T11:06:11;99627.05;;;31.42;44.01
41706;BME280;27385;51.096;17.190;2022-08-19T11:08:44;99626.63;;;31.47;44.25
41706;BME280;27385;51.096;17.190;2022-08-19T11:11:19;99631.62;;;31.52;44.10
41706;BME280;27385;51.096;17.190;2022-08-19T11:13:54;99631.80;;;31.58;43.64
41706;BME280;27385;51.096;17.190;2022-08-19T11:16:29;99625.32;;;31.61;43.62
41706;BME280;27385;51.096;17.190;2022-08-19T11:19:04;99624.14;;;31.58;43.54
41706;BME280;27385;51.096;17.190;2022-08-19T11:21:41;99617.65;;;31.52;43.31
41706;BME280;27385;51.096;17.190;2022-08-19T11:24:17;99617.88;;;31.49;43.26
41706;BME280;27385;51.096;17.190;2022-08-19T11:26:52;99622.69;;;31.49;43.16
41706;BME280;27385;51.096;17.190;2022-08-19T11:29:27;99632.41;;;31.56;43.16
41706;BME280;27385;51.096;17.190;2022-08-19T11:31:59;99630.48;;;31.63;42.98
41706;BME280;27385;51.096;17.190;2022-08-19T11:34:31;99629.95;;;31.72;43.13
41706;BME280;27385;51.096;17.190;2022-08-19T11:37:04;99626.09;;;31.79;43.00
41706;BME280;27385;51.096;17.190;2022-08-19T11:39:36;99624.73;;;31.80;42.60
41706;BME280;27385;51.096;17.190;2022-08-19T11:42:09;99624.92;;;31.81;42.38
41706;BME280;27385;51.096;17.190;2022-08-19T11:44:59;99634.61;;;31.81;42.11
41706;BME280;27385;51.096;17.190;2022-08-19T11:47:31;99637.39;;;31.82;42.00
41706;BME280;27385;51.096;17.190;2022-08-19T11:50:03;99638.95;;;31.84;41.92
41706;BME280;27385;51.096;17.190;2022-08-19T11:52:37;99642.77;;;31.86;41.23
41706;BME280;27385;51.096;17.190;2022-08-19T11:55:11;99646.14;;;31.83;40.65
41706;BME280;27385;51.096;17.190;2022-08-19T11:57:43;99644.22;;;31.80;40.48
41706;BME280;27385;51.096;17.190;2022-08-19T12:00:16;99645.58;;;31.81;40.23
41706;BME280;27385;51.096;17.190;2022-08-19T12:02:48;99640.74;;;31.88;40.07
41706;BME280;27385;51.096;17.190;2022-08-19T12:05:20;99636.47;;;31.97;39.89
41706;BME280;27385;51.096;17.190;2022-08-19T12:07:52;99636.61;;;32.06;39.08
41706;BME280;27385;51.096;17.190;2022-08-19T12:10:24;99635.55;;;32.13;38.53
41706;BME280;27385;51.096;17.190;2022-08-19T12:12:56;99631.36;;;32.19;38.87
41706;BME280;27385;51.096;17.190;2022-08-19T12:15:28;99628.54;;;32.23;38.57
41706;BME280;27385;51.096;17.190;2022-08-19T12:18:00;99631.88;;;32.26;38.35
41706;BME280;27385;51.096;17.190;2022-08-19T12:20:33;99627.64;;;32.28;38.08
41706;BME280;27385;51.096;17.190;2022-08-19T12:23:06;99627.77;;;32.28;37.57
41706;BME280;27385;51.096;17.190;2022-08-19T12:25:42;99625.55;;;32.27;36.99
41706;BME280;27385;51.096;17.190;2022-08-19T12:28:23;99624.72;;;32.22;37.32
41706;BME280;27385;51.096;17.190;2022-08-19T12:30:55;99625.51;;;32.20;37.71
41706;BME280;27385;51.096;17.190;2022-08-19T12:33:27;99629.73;;;32.24;37.79
41706;BME280;27385;51.096;17.190;2022-08-19T12:36:03;99626.66;;;32.29;37.79
41706;BME280;27385;51.096;17.190;2022-08-19T12:38:35;99629.35;;;32.34;37.79
41706;BME280;27385;51.096;17.190;2022-08-19T12:41:09;99626.52;;;32.40;37.88
41706;BME280;27385;51.096;17.190;2022-08-19T12:43:41;99626.05;;;32.45;37.81
41706;BME280;27385;51.096;17.190;2022-08-19T12:46:13;99625.06;;;32.49;37.82
41706;BME280;27385;51.096;17.190;2022-08-19T12:48:44;99622.94;;;32.49;37.53
41706;BME280;27385;51.096;17.190;2022-08-19T12:51:17;99626.81;;;32.52;37.53
41706;BME280;27385;51.096;17.190;2022-08-19T12:53:50;99627.78;;;32.54;37.48
41706;BME280;27385;51.096;17.190;2022-08-19T12:56:22;99627.06;;;32.57;37.62
41706;BME280;27385;51.096;17.190;2022-08-19T12:58:54;99626.94;;;32.57;37.41
41706;BME280;27385;51.096;17.190;2022-08-19T13:01:27;99628.63;;;32.56;37.51
41706;BME280;27385;51.096;17.190;2022-08-19T13:04:02;99627.49;;;32.59;37.53
41706;BME280;27385;51.096;17.190;2022-08-19T13:06:34;99627.19;;;32.62;37.10
41706;BME280;27385;51.096;17.190;2022-08-19T13:09:07;99623.12;;;32.65;36.95
41706;BME280;27385;51.096;17.190;2022-08-19T13:11:39;99621.41;;;32.66;36.00
41706;BME280;27385;51.096;17.190;2022-08-19T13:14:12;99618.36;;;32.65;35.83
41706;BME280;27385;51.096;17.190;2022-08-19T13:16:44;99618.29;;;32.67;35.64
41706;BME280;27385;51.096;17.190;2022-08-19T13:19:16;99614.58;;;32.67;35.68
41706;BME280;27385;51.096;17.190;2022-08-19T13:21:52;99618.30;;;32.70;35.62
41706;BME280;27385;51.096;17.190;2022-08-19T13:24:26;99614.27;;;32.74;34.82